sensor_id;sensor_type;location;lat;lon;timestamp;P1;durP1;ratioP1;P2;durP2;ratioP2
59189;SDS011;50749;51.636;4.948;2024-01-06T00:00:30;2.05;;;1.10;;
59189;SDS011;50749;51.636;4.948;2024-01-06T00:03:21;1.27;;;0.70;;
59189;SDS011;50749;51.636;4.948;2024-01-06T00:05:50;2.45;;;0.98;;
59189;SDS011;50749;51.636;4.948;2024-01-06T00:08:18;1.40;;;0.82;;
59189;SDS011;50749;51.636;4.948;2024-01-06T00:10:47;2.00;;;1.15;;
59189;SDS011;50749;51.636;4.948;2024-01-06T00:13:16;3.38;;;1.38;;
59189;SDS011;50749;51.636;4.948;2024-01-06T00:15:45;1.67;;;1.00;;
59189;SDS011;50749;51.636;4.948;2024-01-06T00:18:13;2.03;;;1.10;;
59189;SDS011;50749;51.636;4.948;2024-01-06T00:20:45;2.15;;;1.17;;
59189;SDS011;50749;51.636;4.948;2024-01-06T00:23:13;2.35;;;1.00;;
59189;SDS011;50749;51.636;4.948;2024-01-06T00:25:42;1.90;;;1.30;;
59189;SDS011;50749;51.636;4.948;2024-01-06T00:28:12;2.22;;;1.42;;
59189;SDS011;50749;51.636;4.948;2024-01-06T00:30:41;3.20;;;1.23;;
59189;SDS011;50749;51.636;4.948;2024-01-06T00:33:10;2.15;;;1.35;;
59189;SDS011;50749;51.636;4.948;2024-01-06T00:35:40;2.53;;;1.50;;
59189;SDS011;50749;51.636;4.948;2024-01-06T00:38:11;1.73;;;1.23;;
59189;SDS011;50749;51.636;4.948;2024-01-06T00:40:40;1.77;;;1.13;;
59189;SDS011;50749;51.636;4.948;2024-01-06T00:43:09;2.25;;;1.30;;
59189;SDS011;50749;51.636;4.948;2024-01-06T00:45:38;2.47;;;1.17;;
59189;SDS011;50749;51.636;4.948;2024-01-06T00:48:06;2.40;;;1.30;;
59189;SDS011;50749;51.636;4.948;2024-01-06T00:50:35;2.38;;;1.30;;
59189;SDS011;50749;51.636;4.948;2024-01-06T00:53:04;3.22;;;1.30;;
59189;SDS011;50749;51.636;4.948;2024-01-06T00:55:35;1.20;;;0.85;;
59189;SDS011;50749;51.636;4.948;2024-01-06T00:58:04;2.30;;;1.10;;
59189;SDS011;50749;51.636;4.948;2024-01-06T01:00:34;1.77;;;0.90;;
59189;SDS011;50749;51.636;4.948;2024-01-06T01:03:02;1.90;;;1.23;;
59189;SDS011;50749;51.636;4.948;2024-01-06T01:05:32;2.25;;;1.40;;
59189;SDS011;50749;51.636;4.948;2024-01-06T01:08:00;1.20;;;0.90;;
59189;SDS011;50749;51.636;4.948;2024-01-06T01:10:29;2.17;;;1.15;;
59189;SDS011;50749;51.636;4.948;2024-01-06T01:13:00;1.65;;;1.00;;
59189;SDS011;50749;51.636;4.948;2024-01-06T01:15:29;1.10;;;0.85;;
59189;SDS011;50749;51.636;4.948;2024-01-06T01:17:58;2.17;;;1.23;;
59189;SDS011;50749;51.636;4.948;2024-01-06T01:20:27;1.48;;;0.90;;
59189;SDS011;50749;51.636;4.948;2024-01-06T01:22:55;1.00;;;0.75;;
59189;SDS011;50749;51.636;4.948;2024-01-06T01:25:24;1.73;;;0.90;;
59189;SDS011;50749;51.636;4.948;2024-01-06T01:27:53;1.42;;;0.63;;
59189;SDS011;50749;51.636;4.948;2024-01-06T01:30:24;1.50;;;0.90;;
59189;SDS011;50749;51.636;4.948;2024-01-06T01:32:53;1.30;;;0.70;;
59189;SDS011;50749;51.636;4.948;2024-01-06T01:35:22;0.90;;;0.80;;
59189;SDS011;50749;51.636;4.948;2024-01-06T01:37:51;1.33;;;0.77;;
59189;SDS011;50749;51.636;4.948;2024-01-06T01:40:19;1.60;;;1.10;;
59189;SDS011;50749;51.636;4.948;2024-01-06T01:42:48;1.10;;;0.80;;
59189;SDS011;50749;51.636;4.948;2024-01-06T01:45:17;0.98;;;0.65;;
59189;SDS011;50749;51.636;4.948;2024-01-06T01:47:48;1.23;;;0.68;;
59189;SDS011;50749;51.636;4.948;2024-01-06T01:50:17;0.88;;;0.60;;
59189;SDS011;50749;51.636;4.948;2024-01-06T01:52:48;1.02;;;0.80;;
59189;SDS011;50749;51.636;4.948;2024-01-06T01:55:17;0.85;;;0.65;;
59189;SDS011;50749;51.636;4.948;2024-01-06T01:57:46;0.90;;;0.70;;
59189;SDS011;50749;51.636;4.948;2024-01-06T02:00:15;1.75;;;0.80;;
59189;SDS011;50749;51.636;4.948;2024-01-06T02:02:44;1.20;;;0.80;;
59189;SDS011;50749;51.636;4.948;2024-01-06T02:05:16;1.25;;;0.68;;
59189;SDS011;50749;51.636;4.948;2024-01-06T02:07:45;2.45;;;0.80;;
59189;SDS011;50749;51.636;4.948;2024-01-06T02:10:16;1.63;;;0.73;;
59189;SDS011;50749;51.636;4.948;2024-01-06T02:12:45;0.75;;;0.52;;
59189;SDS011;50749;51.636;4.948;2024-01-06T02:15:14;2.30;;;0.60;;
59189;SDS011;50749;51.636;4.948;2024-01-06T02:17:43;0.90;;;0.70;;
59189;SDS011;50749;51.636;4.948;2024-01-06T02:20:11;1.58;;;0.63;;
59189;SDS011;50749;51.636;4.948;2024-01-06T02:22:43;1.85;;;0.70;;
59189;SDS011;50749;51.636;4.948;2024-01-06T02:25:12;1.30;;;0.63;;
59189;SDS011;50749;51.636;4.948;2024-01-06T02:27:41;1.35;;;0.50;;
59189;SDS011;50749;51.636;4.948;2024-01-06T02:30:10;1.65;;;0.77;;
59189;SDS011;50749;51.636;4.948;2024-01-06T02:32:39;0.88;;;0.60;;
59189;SDS011;50749;51.636;4.948;2024-01-06T02:35:08;0.98;;;0.65;;
59189;SDS011;50749;51.636;4.948;2024-01-06T02:37:36;1.58;;;0.80;;
59189;SDS011;50749;51.636;4.948;2024-01-06T02:40:09;0.60;;;0.50;;
59189;SDS011;50749;51.636;4.948;2024-01-06T02:42:38;0.88;;;0.50;;
59189;SDS011;50749;51.636;4.948;2024-01-06T02:45:07;1.10;;;0.70;;
59189;SDS011;50749;51.636;4.948;2024-01-06T02:47:37;0.77;;;0.52;;
59189;SDS011;50749;51.636;4.948;2024-01-06T02:50:06;1.15;;;0.68;;
59189;SDS011;50749;51.636;4.948;2024-01-06T02:52:35;0.90;;;0.52;;
59189;SDS011;50749;51.636;4.948;2024-01-06T02:55:04;1.13;;;0.60;;
59189;SDS011;50749;51.636;4.948;2024-01-06T02:57:36;0.95;;;0.60;;
59189;SDS011;50749;51.636;4.948;2024-01-06T03:00:07;0.77;;;0.60;;
59189;SDS011;50749;51.636;4.948;2024-01-06T03:02:38;1.00;;;0.68;;
59189;SDS011;50749;51.636;4.948;2024-01-06T03:05:08;0.82;;;0.30;;
59189;SDS011;50749;51.636;4.948;2024-01-06T03:07:37;0.80;;;0.60;;
59189;SDS011;50749;51.636;4.948;2024-01-06T03:10:09;0.38;;;0.35;;
59189;SDS011;50749;51.636;4.948;2024-01-06T03:12:37;0.90;;;0.40;;
59189;SDS011;50749;51.636;4.948;2024-01-06T03:15:08;1.15;;;0.52;;
59189;SDS011;50749;51.636;4.948;2024-01-06T03:17:37;1.10;;;0.57;;
59189;SDS011;50749;51.636;4.948;2024-01-06T03:20:06;0.90;;;0.60;;
59189;SDS011;50749;51.636;4.948;2024-01-06T03:22:35;1.40;;;0.52;;
59189;SDS011;50749;51.636;4.948;2024-01-06T03:25:05;1.13;;;0.50;;
59189;SDS011;50749;51.636;4.948;2024-01-06T03:27:37;0.75;;;0.43;;
59189;SDS011;50749;51.636;4.948;2024-01-06T03:30:06;0.75;;;0.55;;
59189;SDS011;50749;51.636;4.948;2024-01-06T03:32:35;1.05;;;0.60;;
59189;SDS011;50749;51.636;4.948;2024-01-06T03:35:05;1.13;;;0.57;;
59189;SDS011;50749;51.636;4.948;2024-01-06T03:37:34;0.90;;;0.50;;
59189;SDS011;50749;51.636;4.948;2024-01-06T03:40:03;1.05;;;0.52;;
59189;SDS011;50749;51.636;4.948;2024-01-06T03:42:35;0.98;;;0.50;;
59189;SDS011;50749;51.636;4.948;2024-01-06T03:45:05;0.70;;;0.45;;
59189;SDS011;50749;51.636;4.948;2024-01-06T03:47:34;0.85;;;0.60;;
59189;SDS011;50749;51.636;4.948;2024-01-06T03:50:03;1.20;;;0.57;;
59189;SDS011;50749;51.636;4.948;2024-01-06T03:52:32;0.90;;;0.55;;
59189;SDS011;50749;51.636;4.948;2024-01-06T03:55:01;2.08;;;0.57;;
59189;SDS011;50749;51.636;4.948;2024-01-06T03:57:30;0.82;;;0.47;;
59189;SDS011;50749;51.636;4.948;2024-01-06T04:00:01;0.50;;;0.40;;
59189;SDS011;50749;51.636;4.948;2024-01-06T04:02:31;1.55;;;0.60;;
59189;SDS011;50749;51.636;4.948;2024-01-06T04:05:00;0.73;;;0.50;;
59189;SDS011;50749;51.636;4.948;2024-01-06T04:07:30;2.28;;;0.57;;
59189;SDS011;50749;51.636;4.948;2024-01-06T04:09:59;0.47;;;0.40;;
59189;SDS011;50749;51.636;4.948;2024-01-06T04:12:27;1.30;;;0.63;;
59189;SDS011;50749;51.636;4.948;2024-01-06T04:14:56;0.77;;;0.50;;
59189;SDS011;50749;51.636;4.948;2024-01-06T04:17:27;0.57;;;0.43;;
59189;SDS011;50749;51.636;4.948;2024-01-06T04:19:56;0.85;;;0.60;;
59189;SDS011;50749;51.636;4.948;2024-01-06T04:22:25;0.63;;;0.50;;
59189;SDS011;50749;51.636;4.948;2024-01-06T04:24:54;0.57;;;0.40;;
59189;SDS011;50749;51.636;4.948;2024-01-06T04:27:22;1.00;;;0.60;;
59189;SDS011;50749;51.636;4.948;2024-01-06T04:29:51;0.60;;;0.50;;
59189;SDS011;50749;51.636;4.948;2024-01-06T04:32:20;1.15;;;0.50;;
59189;SDS011;50749;51.636;4.948;2024-01-06T04:34:51;0.90;;;0.50;;
59189;SDS011;50749;51.636;4.948;2024-01-06T04:37:22;0.88;;;0.40;;
59189;SDS011;50749;51.636;4.948;2024-01-06T04:39:51;0.30;;;0.30;;
59189;SDS011;50749;51.636;4.948;2024-01-06T04:42:19;0.80;;;0.50;;
59189;SDS011;50749;51.636;4.948;2024-01-06T04:44:48;0.90;;;0.50;;
59189;SDS011;50749;51.636;4.948;2024-01-06T04:47:17;1.75;;;0.82;;
59189;SDS011;50749;51.636;4.948;2024-01-06T04:49:46;0.75;;;0.50;;
59189;SDS011;50749;51.636;4.948;2024-01-06T04:52:18;0.57;;;0.40;;
59189;SDS011;50749;51.636;4.948;2024-01-06T04:54:46;0.82;;;0.50;;
59189;SDS011;50749;51.636;4.948;2024-01-06T04:57:17;1.45;;;0.50;;
59189;SDS011;50749;51.636;4.948;2024-01-06T04:59:49;0.52;;;0.40;;
59189;SDS011;50749;51.636;4.948;2024-01-06T05:02:18;0.30;;;0.30;;
59189;SDS011;50749;51.636;4.948;2024-01-06T05:04:47;1.25;;;0.57;;
59189;SDS011;50749;51.636;4.948;2024-01-06T05:07:18;0.68;;;0.45;;
59189;SDS011;50749;51.636;4.948;2024-01-06T05:09:47;1.20;;;0.57;;
59189;SDS011;50749;51.636;4.948;2024-01-06T05:12:16;1.27;;;0.88;;
59189;SDS011;50749;51.636;4.948;2024-01-06T05:14:44;0.85;;;0.50;;
59189;SDS011;50749;51.636;4.948;2024-01-06T05:17:13;1.02;;;0.50;;
59189;SDS011;50749;51.636;4.948;2024-01-06T05:19:42;0.32;;;0.32;;
59189;SDS011;50749;51.636;4.948;2024-01-06T05:22:10;0.90;;;0.68;;
59189;SDS011;50749;51.636;4.948;2024-01-06T05:24:42;1.17;;;0.50;;
59189;SDS011;50749;51.636;4.948;2024-01-06T05:27:11;0.57;;;0.45;;
59189;SDS011;50749;51.636;4.948;2024-01-06T05:29:40;1.00;;;0.50;;
59189;SDS011;50749;51.636;4.948;2024-01-06T05:32:09;1.05;;;0.55;;
59189;SDS011;50749;51.636;4.948;2024-01-06T05:34:37;0.50;;;0.40;;
59189;SDS011;50749;51.636;4.948;2024-01-06T05:37:06;0.57;;;0.30;;
59189;SDS011;50749;51.636;4.948;2024-01-06T05:39:37;0.43;;;0.35;;
59189;SDS011;50749;51.636;4.948;2024-01-06T05:42:08;0.57;;;0.40;;
59189;SDS011;50749;51.636;4.948;2024-01-06T05:44:38;0.82;;;0.50;;
59189;SDS011;50749;51.636;4.948;2024-01-06T05:47:07;0.50;;;0.43;;
59189;SDS011;50749;51.636;4.948;2024-01-06T05:49:38;1.40;;;0.40;;
59189;SDS011;50749;51.636;4.948;2024-01-06T05:52:09;0.40;;;0.40;;
59189;SDS011;50749;51.636;4.948;2024-01-06T05:54:39;0.47;;;0.32;;
59189;SDS011;50749;51.636;4.948;2024-01-06T05:57:11;0.80;;;0.60;;
59189;SDS011;50749;51.636;4.948;2024-01-06T05:59:40;0.82;;;0.50;;
59189;SDS011;50749;51.636;4.948;2024-01-06T06:02:09;0.80;;;0.50;;
59189;SDS011;50749;51.636;4.948;2024-01-06T06:04:38;2.00;;;0.60;;
59189;SDS011;50749;51.636;4.948;2024-01-06T06:07:06;0.50;;;0.50;;
59189;SDS011;50749;51.636;4.948;2024-01-06T06:09:35;0.82;;;0.40;;
59189;SDS011;50749;51.636;4.948;2024-01-06T06:12:05;0.70;;;0.40;;
59189;SDS011;50749;51.636;4.948;2024-01-06T06:14:37;0.75;;;0.50;;
59189;SDS011;50749;51.636;4.948;2024-01-06T06:17:06;1.15;;;0.60;;
59189;SDS011;50749;51.636;4.948;2024-01-06T06:19:35;0.60;;;0.40;;
59189;SDS011;50749;51.636;4.948;2024-01-06T06:22:04;0.60;;;0.38;;
59189;SDS011;50749;51.636;4.948;2024-01-06T06:24:33;0.35;;;0.30;;
59189;SDS011;50749;51.636;4.948;2024-01-06T06:27:01;0.70;;;0.32;;
59189;SDS011;50749;51.636;4.948;2024-01-06T06:29:30;0.63;;;0.30;;
59189;SDS011;50749;51.636;4.948;2024-01-06T06:32:02;0.65;;;0.30;;
59189;SDS011;50749;51.636;4.948;2024-01-06T06:34:31;1.48;;;0.30;;
59189;SDS011;50749;51.636;4.948;2024-01-06T06:37:00;0.40;;;0.30;;
59189;SDS011;50749;51.636;4.948;2024-01-06T06:39:29;0.22;;;0.22;;
59189;SDS011;50749;51.636;4.948;2024-01-06T06:41:58;1.08;;;0.30;;
59189;SDS011;50749;51.636;4.948;2024-01-06T06:44:26;0.50;;;0.30;;
59189;SDS011;50749;51.636;4.948;2024-01-06T06:46:55;0.63;;;0.30;;
59189;SDS011;50749;51.636;4.948;2024-01-06T06:49:27;0.50;;;0.30;;
59189;SDS011;50749;51.636;4.948;2024-01-06T06:51:55;0.38;;;0.35;;
59189;SDS011;50749;51.636;4.948;2024-01-06T06:54:24;0.75;;;0.35;;
59189;SDS011;50749;51.636;4.948;2024-01-06T06:56:53;0.82;;;0.52;;
59189;SDS011;50749;51.636;4.948;2024-01-06T06:59:21;0.20;;;0.20;;
59189;SDS011;50749;51.636;4.948;2024-01-06T07:01:50;0.20;;;0.20;;
59189;SDS011;50749;51.636;4.948;2024-01-06T07:04:19;0.35;;;0.20;;
59189;SDS011;50749;51.636;4.948;2024-01-06T07:06:51;0.63;;;0.32;;
59189;SDS011;50749;51.636;4.948;2024-01-06T07:09:20;0.40;;;0.30;;
59189;SDS011;50749;51.636;4.948;2024-01-06T07:11:50;0.40;;;0.22;;
59189;SDS011;50749;51.636;4.948;2024-01-06T07:14:19;0.50;;;0.30;;
59189;SDS011;50749;51.636;4.948;2024-01-06T07:16:48;0.20;;;0.20;;
59189;SDS011;50749;51.636;4.948;2024-01-06T07:19:16;0.28;;;0.28;;
59189;SDS011;50749;51.636;4.948;2024-01-06T07:21:45;0.25;;;0.25;;
59189;SDS011;50749;51.636;4.948;2024-01-06T07:24:16;0.20;;;0.20;;
59189;SDS011;50749;51.636;4.948;2024-01-06T07:26:45;0.20;;;0.20;;
59189;SDS011;50749;51.636;4.948;2024-01-06T07:29:14;0.20;;;0.20;;
59189;SDS011;50749;51.636;4.948;2024-01-06T07:31:43;0.40;;;0.30;;
59189;SDS011;50749;51.636;4.948;2024-01-06T07:34:12;0.38;;;0.20;;
59189;SDS011;50749;51.636;4.948;2024-01-06T07:36:41;0.52;;;0.25;;
59189;SDS011;50749;51.636;4.948;2024-01-06T07:39:10;0.60;;;0.30;;
59189;SDS011;50749;51.636;4.948;2024-01-06T07:41:41;0.22;;;0.20;;
59189;SDS011;50749;51.636;4.948;2024-01-06T07:44:10;0.50;;;0.30;;
59189;SDS011;50749;51.636;4.948;2024-01-06T07:46:41;0.25;;;0.25;;
59189;SDS011;50749;51.636;4.948;2024-01-06T07:49:10;0.35;;;0.30;;
59189;SDS011;50749;51.636;4.948;2024-01-06T07:51:39;0.68;;;0.30;;
59189;SDS011;50749;51.636;4.948;2024-01-06T07:54:07;1.38;;;0.88;;
59189;SDS011;50749;51.636;4.948;2024-01-06T07:56:37;1.23;;;0.55;;
59189;SDS011;50749;51.636;4.948;2024-01-06T07:59:08;0.30;;;0.30;;
59189;SDS011;50749;51.636;4.948;2024-01-06T08:01:38;1.42;;;0.40;;
59189;SDS011;50749;51.636;4.948;2024-01-06T08:04:08;0.30;;;0.30;;
59189;SDS011;50749;51.636;4.948;2024-01-06T08:06:37;1.10;;;0.30;;
59189;SDS011;50749;51.636;4.948;2024-01-06T08:09:05;0.40;;;0.40;;
59189;SDS011;50749;51.636;4.948;2024-01-06T08:11:35;1.13;;;0.75;;
59189;SDS011;50749;51.636;4.948;2024-01-06T08:14:04;0.95;;;0.30;;
59189;SDS011;50749;51.636;4.948;2024-01-06T08:16:36;1.30;;;0.70;;
59189;SDS011;50749;51.636;4.948;2024-01-06T08:19:04;0.63;;;0.40;;
59189;SDS011;50749;51.636;4.948;2024-01-06T08:21:33;0.70;;;0.40;;
59189;SDS011;50749;51.636;4.948;2024-01-06T08:24:02;0.60;;;0.40;;
59189;SDS011;50749;51.636;4.948;2024-01-06T08:26:31;0.63;;;0.30;;
59189;SDS011;50749;51.636;4.948;2024-01-06T08:29:00;1.25;;;0.50;;
59189;SDS011;50749;51.636;4.948;2024-01-06T08:31:29;2.60;;;0.50;;
59189;SDS011;50749;51.636;4.948;2024-01-06T08:34:01;0.30;;;0.30;;
59189;SDS011;50749;51.636;4.948;2024-01-06T08:36:31;2.83;;;0.40;;
59189;SDS011;50749;51.636;4.948;2024-01-06T08:39:00;0.40;;;0.40;;
59189;SDS011;50749;51.636;4.948;2024-01-06T08:41:29;1.67;;;0.40;;
59189;SDS011;50749;51.636;4.948;2024-01-06T08:43:58;1.60;;;0.52;;
59189;SDS011;50749;51.636;4.948;2024-01-06T08:46:27;0.98;;;0.45;;
59189;SDS011;50749;51.636;4.948;2024-01-06T08:48:55;0.70;;;0.40;;
59189;SDS011;50749;51.636;4.948;2024-01-06T08:51:28;0.70;;;0.60;;
59189;SDS011;50749;51.636;4.948;2024-01-06T08:53:57;0.75;;;0.40;;
59189;SDS011;50749;51.636;4.948;2024-01-06T08:56:26;1.25;;;0.40;;
59189;SDS011;50749;51.636;4.948;2024-01-06T08:58:54;0.63;;;0.32;;
59189;SDS011;50749;51.636;4.948;2024-01-06T09:01:23;0.75;;;0.50;;
59189;SDS011;50749;51.636;4.948;2024-01-06T09:03:52;0.80;;;0.50;;
59189;SDS011;50749;51.636;4.948;2024-01-06T09:06:21;1.17;;;0.60;;
59189;SDS011;50749;51.636;4.948;2024-01-06T09:08:52;3.72;;;0.70;;
59189;SDS011;50749;51.636;4.948;2024-01-06T09:11:21;1.02;;;0.50;;
59189;SDS011;50749;51.636;4.948;2024-01-06T09:13:49;0.95;;;0.50;;
59189;SDS011;50749;51.636;4.948;2024-01-06T09:16:19;0.52;;;0.35;;
59189;SDS011;50749;51.636;4.948;2024-01-06T09:18:48;0.50;;;0.40;;
59189;SDS011;50749;51.636;4.948;2024-01-06T09:21:17;0.85;;;0.25;;
59189;SDS011;50749;51.636;4.948;2024-01-06T09:23:46;0.40;;;0.40;;
59189;SDS011;50749;51.636;4.948;2024-01-06T09:26:17;0.70;;;0.43;;
59189;SDS011;50749;51.636;4.948;2024-01-06T09:28:46;1.27;;;0.50;;
59189;SDS011;50749;51.636;4.948;2024-01-06T09:31:15;1.30;;;0.55;;
59189;SDS011;50749;51.636;4.948;2024-01-06T09:33:43;0.52;;;0.40;;
59189;SDS011;50749;51.636;4.948;2024-01-06T09:36:12;0.95;;;0.50;;
59189;SDS011;50749;51.636;4.948;2024-01-06T09:38:41;0.90;;;0.40;;
59189;SDS011;50749;51.636;4.948;2024-01-06T09:41:10;0.95;;;0.47;;
59189;SDS011;50749;51.636;4.948;2024-01-06T09:43:41;1.00;;;0.40;;
59189;SDS011;50749;51.636;4.948;2024-01-06T09:46:11;1.92;;;0.90;;
59189;SDS011;50749;51.636;4.948;2024-01-06T09:48:45;4.72;;;0.63;;
59189;SDS011;50749;51.636;4.948;2024-01-06T09:51:18;1.63;;;0.50;;
59189;SDS011;50749;51.636;4.948;2024-01-06T09:53:48;2.20;;;0.60;;
59189;SDS011;50749;51.636;4.948;2024-01-06T09:56:21;0.70;;;0.32;;
59189;SDS011;50749;51.636;4.948;2024-01-06T09:58:54;2.35;;;0.40;;
59189;SDS011;50749;51.636;4.948;2024-01-06T10:01:23;2.58;;;0.73;;
59189;SDS011;50749;51.636;4.948;2024-01-06T10:03:52;1.20;;;0.52;;
59189;SDS011;50749;51.636;4.948;2024-01-06T10:06:20;1.45;;;0.40;;
59189;SDS011;50749;51.636;4.948;2024-01-06T10:08:49;0.80;;;0.60;;
59189;SDS011;50749;51.636;4.948;2024-01-06T10:11:20;0.93;;;0.55;;
59189;SDS011;50749;51.636;4.948;2024-01-06T10:13:54;0.80;;;0.55;;
59189;SDS011;50749;51.636;4.948;2024-01-06T10:16:23;1.15;;;0.50;;
59189;SDS011;50749;51.636;4.948;2024-01-06T10:18:52;1.67;;;0.55;;
59189;SDS011;50749;51.636;4.948;2024-01-06T10:21:21;0.70;;;0.40;;
59189;SDS011;50749;51.636;4.948;2024-01-06T10:23:50;3.08;;;0.60;;
59189;SDS011;50749;51.636;4.948;2024-01-06T10:26:19;0.35;;;0.30;;
59189;SDS011;50749;51.636;4.948;2024-01-06T10:28:48;1.25;;;0.40;;
59189;SDS011;50749;51.636;4.948;2024-01-06T10:31:20;2.05;;;0.38;;
59189;SDS011;50749;51.636;4.948;2024-01-06T10:33:48;2.70;;;0.70;;
59189;SDS011;50749;51.636;4.948;2024-01-06T10:36:17;0.68;;;0.50;;
59189;SDS011;50749;51.636;4.948;2024-01-06T10:38:47;2.33;;;0.50;;
59189;SDS011;50749;51.636;4.948;2024-01-06T10:41:18;0.85;;;0.47;;
59189;SDS011;50749;51.636;4.948;2024-01-06T10:43:47;1.00;;;0.50;;
59189;SDS011;50749;51.636;4.948;2024-01-06T10:46:21;0.43;;;0.40;;
59189;SDS011;50749;51.636;4.948;2024-01-06T10:48:50;1.17;;;0.52;;
59189;SDS011;50749;51.636;4.948;2024-01-06T10:51:20;9.63;;;0.75;;
59189;SDS011;50749;51.636;4.948;2024-01-06T10:53:51;0.98;;;0.50;;
59189;SDS011;50749;51.636;4.948;2024-01-06T10:56:21;1.50;;;0.60;;
59189;SDS011;50749;51.636;4.948;2024-01-06T10:58:53;1.00;;;0.50;;
59189;SDS011;50749;51.636;4.948;2024-01-06T11:01:25;1.15;;;0.55;;
59189;SDS011;50749;51.636;4.948;2024-01-06T11:03:53;0.77;;;0.50;;
59189;SDS011;50749;51.636;4.948;2024-01-06T11:06:23;1.75;;;0.75;;
59189;SDS011;50749;51.636;4.948;2024-01-06T11:08:53;0.75;;;0.50;;
59189;SDS011;50749;51.636;4.948;2024-01-06T11:11:27;5.30;;;1.10;;
59189;SDS011;50749;51.636;4.948;2024-01-06T11:16:49;8.85;;;1.27;;
59189;SDS011;50749;51.636;4.948;2024-01-06T11:22:21;2.63;;;0.80;;
59189;SDS011;50749;51.636;4.948;2024-01-06T11:24:57;2.40;;;0.90;;
59189;SDS011;50749;51.636;4.948;2024-01-06T11:27:33;2.00;;;0.80;;
59189;SDS011;50749;51.636;4.948;2024-01-06T11:30:03;1.42;;;0.60;;
59189;SDS011;50749;51.636;4.948;2024-01-06T11:32:37;2.00;;;0.90;;
59189;SDS011;50749;51.636;4.948;2024-01-06T11:35:09;4.93;;;0.90;;
59189;SDS011;50749;51.636;4.948;2024-01-06T11:37:50;4.47;;;1.38;;
59189;SDS011;50749;51.636;4.948;2024-01-06T11:40:27;1.30;;;0.82;;
59189;SDS011;50749;51.636;4.948;2024-01-06T11:43:01;2.00;;;0.90;;
59189;SDS011;50749;51.636;4.948;2024-01-06T11:45:32;2.20;;;0.75;;
59189;SDS011;50749;51.636;4.948;2024-01-06T11:48:05;1.00;;;0.60;;
59189;SDS011;50749;51.636;4.948;2024-01-06T11:50:35;2.20;;;0.95;;
59189;SDS011;50749;51.636;4.948;2024-01-06T11:53:05;2.83;;;0.77;;
59189;SDS011;50749;51.636;4.948;2024-01-06T11:55:35;1.20;;;0.88;;
59189;SDS011;50749;51.636;4.948;2024-01-06T11:58:08;2.90;;;0.82;;
59189;SDS011;50749;51.636;4.948;2024-01-06T12:00:36;1.02;;;0.60;;
59189;SDS011;50749;51.636;4.948;2024-01-06T12:03:08;1.45;;;0.80;;
59189;SDS011;50749;51.636;4.948;2024-01-06T12:05:37;3.17;;;0.93;;
59189;SDS011;50749;51.636;4.948;2024-01-06T12:08:06;2.92;;;0.73;;
59189;SDS011;50749;51.636;4.948;2024-01-06T12:10:34;2.10;;;0.88;;
59189;SDS011;50749;51.636;4.948;2024-01-06T12:13:04;1.90;;;0.95;;
59189;SDS011;50749;51.636;4.948;2024-01-06T12:15:34;2.28;;;0.70;;
59189;SDS011;50749;51.636;4.948;2024-01-06T12:18:07;2.40;;;0.80;;
59189;SDS011;50749;51.636;4.948;2024-01-06T12:20:36;1.73;;;0.80;;
59189;SDS011;50749;51.636;4.948;2024-01-06T12:23:06;2.60;;;0.80;;
59189;SDS011;50749;51.636;4.948;2024-01-06T12:25:35;2.05;;;0.98;;
59189;SDS011;50749;51.636;4.948;2024-01-06T12:28:05;1.00;;;0.70;;
59189;SDS011;50749;51.636;4.948;2024-01-06T12:30:34;2.78;;;0.93;;
59189;SDS011;50749;51.636;4.948;2024-01-06T12:33:03;1.63;;;0.73;;
59189;SDS011;50749;51.636;4.948;2024-01-06T12:35:36;5.78;;;2.10;;
59189;SDS011;50749;51.636;4.948;2024-01-06T12:38:05;1.80;;;1.15;;
59189;SDS011;50749;51.636;4.948;2024-01-06T12:40:34;1.60;;;1.10;;
59189;SDS011;50749;51.636;4.948;2024-01-06T12:43:03;3.00;;;1.10;;
59189;SDS011;50749;51.636;4.948;2024-01-06T12:45:32;4.10;;;1.40;;
59189;SDS011;50749;51.636;4.948;2024-01-06T12:48:01;6.22;;;1.30;;
59189;SDS011;50749;51.636;4.948;2024-01-06T12:50:30;6.85;;;1.42;;
59189;SDS011;50749;51.636;4.948;2024-01-06T12:53:01;5.25;;;1.35;;
59189;SDS011;50749;51.636;4.948;2024-01-06T12:55:30;2.05;;;1.15;;
59189;SDS011;50749;51.636;4.948;2024-01-06T12:57:59;6.35;;;1.50;;
59189;SDS011;50749;51.636;4.948;2024-01-06T13:00:29;2.38;;;1.10;;
59189;SDS011;50749;51.636;4.948;2024-01-06T13:02:58;3.10;;;1.40;;
59189;SDS011;50749;51.636;4.948;2024-01-06T13:05:26;3.92;;;1.60;;
59189;SDS011;50749;51.636;4.948;2024-01-06T13:07:55;3.58;;;1.30;;
59189;SDS011;50749;51.636;4.948;2024-01-06T13:10:26;3.22;;;1.17;;
59189;SDS011;50749;51.636;4.948;2024-01-06T13:12:55;3.13;;;1.00;;
59189;SDS011;50749;51.636;4.948;2024-01-06T13:15:24;3.55;;;1.10;;
59189;SDS011;50749;51.636;4.948;2024-01-06T13:17:53;4.75;;;1.27;;
59189;SDS011;50749;51.636;4.948;2024-01-06T13:20:22;2.80;;;1.10;;
59189;SDS011;50749;51.636;4.948;2024-01-06T13:22:51;9.32;;;1.30;;
59189;SDS011;50749;51.636;4.948;2024-01-06T13:25:20;4.50;;;1.30;;
59189;SDS011;50749;51.636;4.948;2024-01-06T13:27:52;2.30;;;1.38;;
59189;SDS011;50749;51.636;4.948;2024-01-06T13:30:21;2.47;;;1.15;;
59189;SDS011;50749;51.636;4.948;2024-01-06T13:32:51;5.95;;;0.80;;
59189;SDS011;50749;51.636;4.948;2024-01-06T13:35:20;2.45;;;1.10;;
59189;SDS011;50749;51.636;4.948;2024-01-06T13:37:50;3.17;;;1.20;;
59189;SDS011;50749;51.636;4.948;2024-01-06T13:40:21;4.18;;;1.35;;
59189;SDS011;50749;51.636;4.948;2024-01-06T13:42:53;5.35;;;1.48;;
59189;SDS011;50749;51.636;4.948;2024-01-06T13:45:21;4.78;;;1.50;;
59189;SDS011;50749;51.636;4.948;2024-01-06T13:47:50;4.60;;;1.25;;
59189;SDS011;50749;51.636;4.948;2024-01-06T13:50:19;4.88;;;1.27;;
59189;SDS011;50749;51.636;4.948;2024-01-06T13:52:48;4.03;;;1.60;;
59189;SDS011;50749;51.636;4.948;2024-01-06T13:55:17;5.38;;;1.40;;
59189;SDS011;50749;51.636;4.948;2024-01-06T13:57:46;2.75;;;1.13;;
59189;SDS011;50749;51.636;4.948;2024-01-06T14:00:17;3.42;;;1.75;;
59189;SDS011;50749;51.636;4.948;2024-01-06T14:02:46;7.88;;;1.05;;
59189;SDS011;50749;51.636;4.948;2024-01-06T14:05:15;7.05;;;1.42;;
59189;SDS011;50749;51.636;4.948;2024-01-06T14:07:45;2.83;;;1.02;;
59189;SDS011;50749;51.636;4.948;2024-01-06T14:10:15;1.95;;;1.30;;
59189;SDS011;50749;51.636;4.948;2024-01-06T14:12:45;2.70;;;0.93;;
59189;SDS011;50749;51.636;4.948;2024-01-06T14:15:13;2.45;;;0.80;;
59189;SDS011;50749;51.636;4.948;2024-01-06T14:17:45;4.38;;;0.95;;
59189;SDS011;50749;51.636;4.948;2024-01-06T14:20:16;2.10;;;0.98;;
59189;SDS011;50749;51.636;4.948;2024-01-06T14:22:45;2.45;;;1.20;;
59189;SDS011;50749;51.636;4.948;2024-01-06T14:25:14;2.30;;;1.00;;
59189;SDS011;50749;51.636;4.948;2024-01-06T14:27:45;2.78;;;1.00;;
59189;SDS011;50749;51.636;4.948;2024-01-06T14:30:13;2.88;;;1.00;;
59189;SDS011;50749;51.636;4.948;2024-01-06T14:32:45;3.72;;;1.08;;
59189;SDS011;50749;51.636;4.948;2024-01-06T14:35:16;3.53;;;1.30;;
59189;SDS011;50749;51.636;4.948;2024-01-06T14:37:45;4.63;;;1.20;;
59189;SDS011;50749;51.636;4.948;2024-01-06T14:40:13;4.13;;;1.75;;
59189;SDS011;50749;51.636;4.948;2024-01-06T14:42:42;2.08;;;1.02;;
59189;SDS011;50749;51.636;4.948;2024-01-06T14:45:11;1.80;;;0.90;;
59189;SDS011;50749;51.636;4.948;2024-01-06T14:47:42;5.22;;;1.15;;
59189;SDS011;50749;51.636;4.948;2024-01-06T14:50:11;1.75;;;0.70;;
59189;SDS011;50749;51.636;4.948;2024-01-06T14:52:39;2.33;;;1.20;;
59189;SDS011;50749;51.636;4.948;2024-01-06T14:55:08;3.10;;;1.00;;
59189;SDS011;50749;51.636;4.948;2024-01-06T14:57:38;2.03;;;1.20;;
59189;SDS011;50749;51.636;4.948;2024-01-06T15:00:07;2.50;;;1.00;;
59189;SDS011;50749;51.636;4.948;2024-01-06T15:02:37;4.60;;;1.50;;
59189;SDS011;50749;51.636;4.948;2024-01-06T15:05:09;1.50;;;0.80;;
59189;SDS011;50749;51.636;4.948;2024-01-06T15:07:38;2.22;;;1.15;;